• Join FlightAware (Why Join?)
  • Login
  • US Flag 
11:20PM EDT


 

Airport Tracker/Info


-or-


 

Live Flight TrackerFlight Track Log ✈ ASH3770 ✈ 17-Apr-2013 ✈ KIAD - KAUS

Flight Track Log - Related Links

Times and Time Zones

All times are in EDT time to prevent confusion due to time zone crossing. See the ASH3770 flight status page for this flight to view local times or setup timezone preferences in your user account.

Time Position Orientation Groundspeed Altitude Reporting Facility
EDT Latitude Longitude Course Direction KTS MPH feet Rate Location/Type
01:02PM 38.9333 -77.5667 288° West 200 230 2,900  Level Potomac TRACON
01:03PM 38.9000 -77.6333 237° Southwest 230 265 5,100 2,040 Climbing Potomac TRACON
01:03PM 38.9036 -77.6803 276° West 241 277 5,800 2,280 Climbing Washington Center
01:04PM 38.8753 -77.7514 243° Southwest 279 321 8,100 2,460 Climbing Washington Center
01:05PM 38.8669 -77.8658 265° West 276 318 10,800 1,860 Climbing Washington Center
01:06PM 38.8653 -77.9539 269° West 320 368 11,900 1,620 Climbing Washington Center
01:07PM 38.8455 -78.1818 288° West  Level FlightAware Approximate
01:07PM 38.8583 -78.0842 266° West 342 394 14,100  Level Washington Center
01:08PM 38.8539 -78.1961 267° West 347 399 15,600 1,620 Climbing Washington Center
01:09PM 38.8528 -78.3372 269° West 354 407 17,400 1,560 Climbing Washington Center
01:10PM 38.8497 -78.4678 268° West 365 420 18,800 1,440 Climbing Washington Center
01:11PM 38.8525 -78.6092 271° West 373 429 20,300 1,380 Climbing Washington Center
01:12PM 38.8511 -78.7478 269° West 384 442 21,600 1,260 Climbing Washington Center
01:13PM 38.8500 -78.8731 269° West 389 448 22,900 1,320 Climbing Washington Center
01:14PM 38.8414 -79.0272 266° West 389 448 24,300 1,200 Climbing Washington Center
01:15PM 38.8436 -79.1633 271° West 402 463 25,300 1,080 Climbing Washington Center
01:16PM 38.8222 -79.3247 260° West 420 483 26,500 1,140 Climbing Washington Center
01:17PM 38.7947 -79.4697 256° West 425 489 27,600 960 Climbing Washington Center
01:18PM 38.7669 -79.6122 256° West 425 489 28,500 1,080 Climbing Washington Center
01:19PM 38.7267 -79.7536 250° West 425 489 29,800 1,380 Climbing Washington Center
01:20PM 38.6850 -79.8736 246° West 425 489 31,300 1,140 Climbing Washington Center
01:21PM 38.6428 -80.0042 248° West 412 474 32,100 900 Climbing Washington Center
01:22PM 38.6003 -80.1344 247° West 406 467 33,100 960 Climbing Washington Center
01:24PM 38.5178 -80.4433 251° West 375 432 35,500 780 Climbing Indianapolis Center
01:25PM 38.4900 -80.5708 254° West 375 432 36,000 240 Climbing Indianapolis Center
01:27PM 38.4619 -80.7008 255° West 380 437 36,000  Level Indianapolis Center
01:28PM 38.4272 -80.8636 255° West 394 453 36,000  Level Indianapolis Center
01:29PM 38.3958 -81.0017 254° West 402 463 36,000  Level Indianapolis Center
01:30PM 38.3664 -81.1414 255° West 405 466 36,000  Level Indianapolis Center
01:31PM 38.3344 -81.2814 254° West 407 468 36,000  Level Indianapolis Center
01:32PM 38.3031 -81.4219 254° West 409 471 36,000  Level Indianapolis Center
01:33PM 38.2711 -81.5628 254° West 410 472 36,000  Level Indianapolis Center
01:34PM 38.2394 -81.7033 254° West 411 473 36,000  Level Indianapolis Center
01:35PM 38.2075 -81.8447 254° West 415 478 36,000  Level Indianapolis Center
01:36PM 38.1753 -81.9850 254° West 414 476 36,000  Level Indianapolis Center
01:37PM 38.1367 -82.1550 254° West 416 479 36,000  Level Indianapolis Center
01:38PM 38.1044 -82.2911 253° West 419 482 36,000  Level Indianapolis Center
01:39PM 38.0722 -82.4319 254° West 416 479 36,000  Level Indianapolis Center
01:40PM 38.0386 -82.5742 253° West 421 484 36,000  Level Indianapolis Center
01:41PM 37.9994 -82.7403 253° West 422 486 36,000  Level Indianapolis Center
01:42PM 37.9664 -82.8850 254° West 425 489 36,000  Level Indianapolis Center
01:43PM 37.9317 -83.0258 253° West 424 488 36,000  Level Indianapolis Center
01:44PM 37.8981 -83.1678 253° West 424 488 36,000  Level Indianapolis Center
01:45PM 37.8636 -83.3103 253° West 425 489 36,000  Level Indianapolis Center
01:46PM 37.8286 -83.4519 253° West 424 488 36,000  Level Indianapolis Center
01:47PM 37.7878 -83.6172 253° West 424 488 36,000  Level Indianapolis Center
01:48PM 37.7531 -83.7586 253° West 423 487 36,000  Level Indianapolis Center
01:49PM 37.7169 -83.9008 252° West 427 491 36,000  Level Indianapolis Center
01:50PM 37.6778 -84.0378 250° West 420 483 36,000  Level Indianapolis Center
01:51PM 37.6092 -84.1631 235° Southwest 428 493 36,000  Level Indianapolis Center
01:52PM 37.5306 -84.3103 236° Southwest 432 497 36,000  Level Indianapolis Center
01:53PM 37.4669 -84.4358 237° Southwest 429 494 36,000  Level Indianapolis Center
01:54PM 37.3994 -84.5628 236° Southwest 435 501 36,000  Level Indianapolis Center
01:55PM 37.3353 -84.6892 237° Southwest 432 497 36,000  Level Indianapolis Center
01:56PM 37.2722 -84.8172 238° Southwest 432 497 36,000  Level Indianapolis Center
01:57PM 37.2100 -84.9469 239° Southwest 435 501 36,000  Level Indianapolis Center
01:58PM 37.1683 -85.1150 253° West 436 502 36,000  Level Indianapolis Center
01:59PM 37.1428 -85.2611 258° West 432 497 36,000  Level Indianapolis Center
02:00PM 37.1172 -85.4081 258° West 433 498 36,000  Level Indianapolis Center
02:01PM 37.0908 -85.5547 257° West 434 499 36,000  Level Indianapolis Center
02:02PM 37.0653 -85.7008 258° West 438 504 36,000  Level Memphis Center
02:03PM 37.0411 -85.8322 257° West 438 504 36,000  Level Memphis Center
02:04PM 37.0131 -85.9844 257° West 438 504 36,000  Level Memphis Center
02:05PM 36.9869 -86.1314 258° West 438 504 36,000  Level Memphis Center
02:06PM 36.9586 -86.2808 257° West 438 504 36,000  Level Memphis Center
02:07PM 36.9319 -86.4250 257° West 438 504 36,000  Level Memphis Center
02:08PM 36.8675 -86.5578 239° Southwest 438 504 36,000  Level Memphis Center
02:09PM 36.8025 -86.6828 237° Southwest 444 511 36,000  Level Memphis Center
02:10PM 36.7353 -86.8100 237° Southwest 444 511 36,000  Level Memphis Center
02:11PM 36.6678 -86.9344 236° Southwest 444 511 36,000  Level Memphis Center
02:12PM 36.6025 -87.0561 236° Southwest 438 504 36,000  Level Memphis Center
02:13PM 36.5369 -87.1803 237° Southwest 438 504 36,000  Level Memphis Center
02:14PM 36.4692 -87.3017 235° Southwest 433 498 36,000  Level Memphis Center
02:15PM 36.4011 -87.4228 235° Southwest 433 498 36,000  Level Memphis Center
02:16PM 36.3292 -87.5542 236° Southwest 433 498 36,000  Level Memphis Center
02:17PM 36.2650 -87.6747 237° Southwest 428 493 36,000  Level Memphis Center
02:18PM 36.1989 -87.7953 236° Southwest 430 495 36,000  Level Memphis Center
02:19PM 36.1303 -87.9156 235° Southwest 430 495 36,000  Level Memphis Center
02:20PM 36.0639 -88.0333 235° Southwest 430 495 36,000  Level Memphis Center
02:21PM 36.0114 -88.1322 237° Southwest 430 495 36,000  Level Memphis Center
02:22PM 35.9383 -88.2547 234° Southwest 425 489 36,000  Level Memphis Center
02:23PM 35.8694 -88.3742 235° Southwest 425 489 36,000  Level Memphis Center
02:24PM 35.8047 -88.4911 236° Southwest 425 489 36,000  Level Memphis Center
02:25PM 35.7375 -88.6103 235° Southwest 430 495 36,000  Level Memphis Center
02:26PM 35.6725 -88.7267 236° Southwest 430 495 36,000  Level Memphis Center
02:27PM 35.6072 -88.8403 235° Southwest 430 495 36,000  Level Memphis Center
02:28PM 35.5417 -88.9614 236° Southwest 430 495 36,000  Level Memphis Center
02:29PM 35.4742 -89.0772 234° Southwest 430 495 36,000  Level Memphis Center
02:30PM 35.4086 -89.1928 235° Southwest 425 489 36,000  Level Memphis Center
02:31PM 35.3408 -89.3083 234° Southwest 425 489 36,000  Level Memphis Center
02:32PM 35.2731 -89.4261 235° Southwest 431 496 36,000  Level Memphis Center
02:33PM 35.2069 -89.5414 235° Southwest 424 488 36,000  Level Memphis Center
02:34PM 35.1389 -89.6589 235° Southwest 429 494 36,000  Level Memphis Center
02:35PM 35.0706 -89.7761 235° Southwest 429 494 36,000  Level Memphis Center
02:36PM 35.0044 -89.8983 237° Southwest 429 494 36,000  Level Memphis Center
02:37PM 34.9339 -90.0175 234° Southwest 434 499 36,000  Level Memphis Center
02:38PM 34.8631 -90.1319 233° Southwest 434 499 36,000  Level Memphis Center
02:39PM 34.7925 -90.2483 234° Southwest 434 499 36,000  Level Memphis Center
02:40PM 34.7153 -90.3772 234° Southwest 429 494 36,000  Level Memphis Center
02:41PM 34.6464 -90.4933 234° Southwest 429 494 36,000  Level Memphis Center
02:42PM 34.5753 -90.6094 233° Southwest 434 499 36,000  Level Memphis Center
02:43PM 34.5039 -90.7250 233° Southwest 434 499 36,000  Level Memphis Center
02:44PM 34.4347 -90.8406 234° Southwest 428 493 36,000  Level Memphis Center
02:45PM 34.3633 -90.9586 234° Southwest 433 498 36,000  Level Memphis Center
02:46PM 34.2939 -91.0761 234° Southwest 433 498 36,000  Level Memphis Center
02:47PM 34.2200 -91.1861 231° Southwest 428 493 36,000  Level Memphis Center
02:48PM 34.1544 -91.3033 236° Southwest 433 498 36,000  Level Memphis Center
02:49PM 34.0828 -91.4181 233° Southwest 433 498 36,000  Level Memphis Center
02:50PM 34.0214 -91.5200 234° Southwest 433 498 36,000  Level Memphis Center
02:53PM 33.8631 -91.7758 233° Southwest 426 490 36,000  Level Fort Worth Center
02:54PM 33.7972 -91.8925 236° Southwest 432 497 36,000  Level Fort Worth Center
02:55PM 33.7208 -92.0047 231° Southwest 432 497 36,000  Level Fort Worth Center
02:56PM 33.6508 -92.1214 234° Southwest 432 497 36,000  Level Fort Worth Center
02:57PM 33.5803 -92.2353 233° Southwest 432 497 36,000  Level Fort Worth Center
02:58PM 33.5078 -92.3467 232° Southwest 432 497 36,000  Level Fort Worth Center
02:59PM 33.4372 -92.4625 234° Southwest 425 489 36,000  Level Fort Worth Center
03:00PM 33.3644 -92.5736 232° Southwest 430 495 36,000  Level Fort Worth Center
03:01PM 33.2914 -92.6894 233° Southwest 430 495 36,000  Level Fort Worth Center
03:02PM 33.2356 -92.8117 241° Southwest 430 495 36,000  Level Fort Worth Center
03:03PM 33.1942 -92.9378 249° West 425 489 36,000  Level Fort Worth Center
03:04PM 33.1486 -93.0692 248° West 425 489 36,000  Level Fort Worth Center
03:05PM 33.1050 -93.1953 248° West 420 483 36,000  Level Fort Worth Center
03:06PM 33.0633 -93.3236 249° West 420 483 36,000  Level Fort Worth Center
03:07PM 33.0194 -93.4519 248° West 420 483 36,000  Level Fort Worth Center
03:08PM 32.9753 -93.5778 247° West 420 483 36,000  Level Fort Worth Center
03:09PM 32.9333 -93.7083 249° West 420 483 36,000  Level Fort Worth Center
03:10PM 32.8928 -93.8189 246° West 420 483 36,000  Level Fort Worth Center
03:11PM 32.8503 -93.9442 248° West 420 483 36,000  Level Fort Worth Center
03:12PM 32.8078 -94.0669 248° West 420 483 36,000  Level Fort Worth Center
03:13PM 32.7650 -94.1919 248° West 414 476 36,000  Level Fort Worth Center
03:14PM 32.7242 -94.3144 248° West 414 476 36,000  Level Fort Worth Center
03:15PM 32.6833 -94.4367 248° West 409 471 36,000  Level Fort Worth Center
03:16PM 32.6381 -94.5567 246° West 404 465 36,000  Level Fort Worth Center
03:17PM 32.5969 -94.6789 248° West 399 459 36,000  Level Fort Worth Center
03:18PM 32.5558 -94.8008 248° West 399 459 36,000  Level Fort Worth Center
03:19PM 32.5122 -94.9203 247° West 399 459 36,000  Level Fort Worth Center
03:20PM 32.4647 -95.0544 247° West 399 459 36,000  Level Fort Worth Center
03:21PM 32.4333 -95.1611 251° West 392 451 36,000  Level Fort Worth Center
03:22PM 32.3894 -95.2828 247° West 399 459 36,000  Level Fort Worth Center
03:23PM 32.3456 -95.4019 246° West 399 459 36,000  Level Fort Worth Center
03:24PM 32.2994 -95.5308 247° West 399 459 36,000  Level Fort Worth Center
03:25PM 32.2575 -95.6494 247° West 399 459 36,000  Level Fort Worth Center
03:26PM 32.2131 -95.7706 247° West 399 459 36,000  Level Fort Worth Center
03:27PM 32.1708 -95.8917 248° West 391 450 36,000  Level Fort Worth Center
03:28PM 32.1261 -96.0103 246° West 397 457 36,000  Level Fort Worth Center
03:29PM 32.0836 -96.1286 247° West 397 457 36,000  Level Fort Worth Center
03:30PM 32.0408 -96.2444 246° West 397 457 36,000  Level Fort Worth Center
03:31PM 31.9961 -96.3650 246° West 397 457 36,000  Level Fort Worth Center
03:32PM 31.9572 -96.4706 247° West 397 457 36,000 -540 Level Fort Worth Center
03:33PM 31.8850 -96.5839 233° Southwest 398 458 35,000 -1,260 Descending Fort Worth Center
03:34PM 31.7914 -96.6728 219° Southwest 417 480 33,500 -1,500 Descending Fort Worth Center
03:35PM 31.6961 -96.7614 218° Southwest 435 501 32,000 -1,500 Descending Fort Worth Center
03:36PM 31.6067 -96.8425 218° Southwest 429 494 30,500 -1,440 Descending Fort Worth Center
03:36PM 31.5594 -96.8853 218° Southwest 411 473 29,700 -1,440 Descending Houston Center
03:37PM 31.4719 -96.9681 219° Southwest 402 463 28,200 -1,980 Descending Houston Center
03:38PM 31.3842 -97.0483 218° Southwest 397 457 25,700 -2,700 Descending Houston Center
03:39PM 31.2967 -97.1294 218° Southwest 397 457 22,700 -2,880 Descending Houston Center
03:40PM 31.1925 -97.2144 215° Southwest 389 448 19,800 -2,460 Descending Houston Center
03:41PM 31.0983 -97.2522 199° South 356 410 17,700 -2,040 Descending Houston Center
03:42PM 31.0064 -97.2894 199° South 350 403 15,700 -1,920 Descending Houston Center
03:43PM 30.9092 -97.3256 198° South 372 428 13,700 -1,500 Descending Houston Center
03:44PM 30.7989 -97.3675 198° South 360 414 12,600 -1,320 Descending Houston Center
03:45PM 30.7325 -97.4389 223° Southwest 329 379 11,000 -1,440 Descending Houston Center
03:47PM 30.6764 -97.5169 230° Southwest 317 365 9,700 -1,260 Descending Houston Center
03:48PM 30.6161 -97.5517 206° Southwest 257 296 8,500 -1,320 Descending Houston Center
03:49PM 30.5547 -97.5825 203° Southwest 239 275 7,000 -1,500 Descending Houston Center
03:50PM 30.4969 -97.6119 204° Southwest 228 262 5,400 -1,500 Descending Houston Center
03:51PM 30.4369 -97.6403 202° Southwest 228 262 3,900 -1,380 Descending Houston Center
03:52PM 30.3653 -97.6756 203° Southwest 235 270 2,600 -720 Descending Houston Center
03:53PM 30.3114 -97.6825 186° South 210 242 2,500 -480 Descending Houston Center
03:54PM 30.2650 -97.6814 179° South 181 208 1,700 -780 Descending Houston Center